Weather at Piancada Airfield

Public forecast

Using degrees Celsius for public forecast. Weather courtesy of forecast.io.

Closest aviation weather report (METAR) to Piancada Airfield

Closest report is Udine-Rivolto Air Base, 12.9 nm (23.9 km) N.

2024/05/23 02:55 (retrieved 1 hour ago)

LIPI 230255Z 01003KT 9999 FEW080 14/12 Q1015 RMK BKN SCT130 VIS MIN 9999 WIND THR06 03003KT WIND THR24 04003KT BLU

Closest aviation forecast (TAF) to Piancada Airfield

Forecast is more than 6 hours old.

Closest forecast is Bolzano Airport, 83.9 nm (155.3 km) WNW.

2024/05/22 18:13 (retrieved 10 hours ago)

TAF LIPB 222105Z 2218/2318 CNL